Time;durP1;ratioP1;P1;durP2;ratioP2;P2;SDS_P1;SDS_P2;PMS_P1;PMS_P2;Temp;Humidity;BMP_temperature;BMP_pressure;BME280_temperature;BME280_humidity;BME280_pressure;Samples;Min_cycle;Max_cycle;Signal;HPM_P1;HPM_P2
2023/06/09 00:00:47;;;;;;;6.60;6.10;;;;;;;19.76;70.72;100724.25;5035873;28;20210;-76
2023/06/09 00:03:16;;;;;;;6.67;5.97;;;;;;;19.79;70.59;100728.53;5052164;28;20200;-75
2023/06/09 00:05:44;;;;;;;6.67;6.20;;;;;;;19.74;70.60;100730.53;5055204;28;20613;-76
2023/06/09 00:08:11;;;;;;;6.60;6.10;;;;;;;19.73;70.58;100745.59;5054972;28;20206;-76
2023/06/09 00:10:38;;;;;;;6.40;6.00;;;;;;;19.70;70.59;100747.50;5055280;28;20682;-75
2023/06/09 00:13:04;;;;;;;6.17;5.77;;;;;;;19.67;70.44;100745.03;5055144;28;20234;-76
2023/06/09 00:15:31;;;;;;;5.73;5.43;;;;;;;19.60;71.05;100747.13;5055061;28;20217;-76
2023/06/09 00:17:57;;;;;;;6.20;5.90;;;;;;;19.60;71.36;100729.47;5054547;28;20259;-75
2023/06/09 00:20:25;;;;;;;6.63;6.23;;;;;;;19.64;71.72;100723.06;5054771;28;20240;-76
2023/06/09 00:22:55;;;;;;;6.67;6.20;;;;;;;19.65;71.47;100716.81;5054612;28;20219;-75
2023/06/09 00:25:21;;;;;;;7.03;6.43;;;;;;;19.66;71.06;100722.97;5054902;28;20312;-75
2023/06/09 00:27:47;;;;;;;6.90;6.40;;;;;;;19.65;71.07;100721.28;5054787;28;20209;-76
2023/06/09 00:30:15;;;;;;;6.43;6.03;;;;;;;19.68;71.84;100725.53;5054612;28;20225;-76
2023/06/09 00:32:42;;;;;;;7.00;6.60;;;;;;;19.58;71.67;100722.50;5042547;28;20210;-75
2023/06/09 00:35:09;;;;;;;6.80;6.30;;;;;;;19.58;71.75;100717.22;5034898;28;20206;-74
2023/06/09 00:37:36;;;;;;;6.97;6.47;;;;;;;19.54;71.93;100710.38;5034837;28;20218;-74
2023/06/09 00:40:05;;;;;;;6.00;5.70;;;;;;;19.50;72.21;100709.66;5034318;28;20710;-75
2023/06/09 00:42:31;;;;;;;7.63;6.53;;;;;;;19.47;72.30;100699.25;5034863;28;20268;-75
2023/06/09 00:44:58;;;;;;;6.63;6.23;;;;;;;19.42;72.92;100691.56;5034893;28;20213;-75
2023/06/09 00:47:24;;;;;;;6.90;6.40;;;;;;;19.44;72.59;100692.34;5034591;28;20259;-75
2023/06/09 00:49:51;;;;;;;6.07;5.67;;;;;;;19.45;72.29;100690.53;5033829;28;20226;-74
2023/06/09 00:52:18;;;;;;;7.87;7.27;;;;;;;19.45;72.65;100694.03;5034436;28;20225;-74
2023/06/09 00:54:45;;;;;;;6.20;5.80;;;;;;;19.48;72.84;100687.72;5034631;28;20206;-74
2023/06/09 00:57:14;;;;;;;6.50;6.10;;;;;;;19.47;72.97;100685.16;5034471;28;20245;-74
2023/06/09 00:59:40;;;;;;;7.37;6.87;;;;;;;19.47;72.53;100683.38;5034824;28;20271;-74
2023/06/09 01:02:08;;;;;;;7.17;6.63;;;;;;;19.44;72.21;100699.41;5034110;28;20206;-74
2023/06/09 01:04:36;;;;;;;6.83;6.33;;;;;;;19.45;72.37;100691.38;5034206;28;20213;-75
2023/06/09 01:07:12;;;;;;;6.93;6.53;;;;;;;19.47;72.56;100693.97;5033964;28;20615;-74
2023/06/09 01:09:44;;;;;;;7.30;6.90;;;;;;;19.37;72.20;100701.53;5034263;28;20228;-73
2023/06/09 01:12:19;;;;;;;7.17;6.67;;;;;;;19.40;72.06;100700.50;5034031;28;20216;-74
2023/06/09 01:14:49;;;;;;;7.13;6.63;;;;;;;19.43;72.74;100698.56;5034130;28;20212;-74
2023/06/09 01:17:18;;;;;;;6.77;6.37;;;;;;;19.41;72.51;100686.34;5033673;28;20256;-74
2023/06/09 01:19:47;;;;;;;7.00;6.60;;;;;;;19.33;72.51;100699.97;5045773;28;20228;-74
2023/06/09 01:22:29;;;;;;;6.83;6.33;;;;;;;19.34;72.91;100688.44;5053573;28;20210;-74
2023/06/09 01:25:06;;;;;;;6.73;6.23;;;;;;;19.32;73.36;100670.91;5054108;28;20197;-74
2023/06/09 01:27:36;;;;;;;7.13;6.50;;;;;;;19.32;73.52;100663.81;5053532;28;20217;-74
2023/06/09 01:30:05;;;;;;;6.07;5.67;;;;;;;19.29;73.43;100666.66;5058352;28;20229;-74
2023/06/09 01:32:34;;;;;;;6.60;6.10;;;;;;;19.32;73.50;100669.13;5053622;28;20243;-74
2023/06/09 01:35:01;;;;;;;5.80;5.40;;;;;;;19.30;73.73;100659.56;5053581;28;20205;-74
2023/06/09 01:37:28;;;;;;;6.50;6.10;;;;;;;19.30;74.21;100652.47;5053660;28;20201;-74
2023/06/09 01:39:55;;;;;;;6.20;5.60;;;;;;;19.32;73.69;100647.09;5053477;28;20230;-75
2023/06/09 01:42:21;;;;;;;6.37;5.90;;;;;;;19.28;74.09;100653.50;5053659;28;20304;-75
2023/06/09 01:44:49;;;;;;;6.30;5.93;;;;;;;19.25;74.64;100652.72;5053478;28;20209;-75
2023/06/09 01:47:18;;;;;;;6.77;6.27;;;;;;;19.23;74.58;100641.34;5053532;28;20213;-75
2023/06/09 01:49:53;;;;;;;6.87;6.37;;;;;;;19.24;75.19;100632.47;5049071;28;20783;-75
2023/06/09 01:52:25;;;;;;;6.30;5.90;;;;;;;19.22;75.14;100628.19;5033303;28;20263;-75
2023/06/09 01:54:55;;;;;;;6.23;5.83;;;;;;;19.23;74.85;100632.56;5033857;28;20241;-75
2023/06/09 01:57:33;;;;;;;7.00;6.60;;;;;;;19.20;75.33;100619.47;5032911;28;20258;-75
2023/06/09 02:00:04;;;;;;;6.83;6.33;;;;;;;19.17;75.25;100614.38;5033181;28;20234;-74
2023/06/09 02:02:34;;;;;;;6.67;5.93;;;;;;;19.09;75.89;100600.66;5033103;28;20214;-75
2023/06/09 02:05:03;;;;;;;7.47;6.97;;;;;;;19.03;76.60;100583.31;5033152;28;20214;-75
2023/06/09 02:07:31;;;;;;;6.97;6.57;;;;;;;19.05;76.07;100584.09;5033173;28;20206;-75
2023/06/09 02:09:57;;;;;;;6.70;6.23;;;;;;;19.00;76.36;100575.53;5032904;28;20600;-75
2023/06/09 02:12:30;;;;;;;6.67;6.17;;;;;;;18.99;76.52;100581.78;5033133;28;20205;-75
2023/06/09 02:14:57;;;;;;;6.90;6.40;;;;;;;18.92;76.82;100570.63;5032650;28;20641;-75
2023/06/09 02:17:24;;;;;;;6.60;6.10;;;;;;;18.90;76.47;100582.25;5033263;28;20682;-75
2023/06/09 02:19:51;;;;;;;7.10;6.50;;;;;;;18.90;76.65;100576.94;5052078;28;20226;-75
2023/06/09 02:22:17;;;;;;;7.00;6.50;;;;;;;18.86;77.48;100568.31;5039686;28;20730;-75
2023/06/09 02:24:44;;;;;;;6.30;6.00;;;;;;;18.84;78.04;100552.50;5044197;28;20261;-75
2023/06/09 02:27:10;;;;;;;6.80;6.30;;;;;;;18.87;77.18;100554.16;5052642;28;20584;-75
2023/06/09 02:29:37;;;;;;;6.33;5.93;;;;;;;18.83;77.42;100563.19;5052596;28;20232;-75
2023/06/09 02:32:04;;;;;;;6.20;5.90;;;;;;;18.81;77.22;100571.19;5052504;28;20217;-75
2023/06/09 02:34:32;;;;;;;6.70;6.30;;;;;;;18.82;77.22;100574.69;5052188;28;20676;-75
2023/06/09 02:37:00;;;;;;;6.63;6.13;;;;;;;18.80;77.12;100577.41;5051864;28;20209;-75
2023/06/09 02:39:27;;;;;;;6.60;6.20;;;;;;;18.76;77.79;100577.63;5052360;28;20240;-75
2023/06/09 02:41:53;;;;;;;5.93;5.63;;;;;;;18.77;77.86;100574.91;5052326;28;20208;-75
2023/06/09 02:44:21;;;;;;;6.53;6.13;;;;;;;18.70;77.94;100572.66;5052170;28;20330;-75
2023/06/09 02:46:47;;;;;;;6.90;6.50;;;;;;;18.71;77.96;100569.06;5052226;28;20296;-75
2023/06/09 02:49:16;;;;;;;6.47;6.00;;;;;;;18.70;78.11;100570.00;5052225;28;20221;-75
2023/06/09 02:51:43;;;;;;;7.53;6.90;;;;;;;18.61;78.77;100569.53;5051806;28;20228;-75
2023/06/09 02:54:10;;;;;;;6.77;6.37;;;;;;;18.58;79.16;100555.59;5037148;28;20206;-75
2023/06/09 02:56:36;;;;;;;6.70;6.30;;;;;;;18.56;78.91;100557.47;5032012;28;20217;-76
2023/06/09 02:59:03;;;;;;;6.93;6.53;;;;;;;18.55;78.32;100561.91;5032052;28;20233;-75
2023/06/09 03:01:35;;;;;;;6.63;6.13;;;;;;;18.55;78.12;100582.19;5032115;28;20579;-75
2023/06/09 03:04:02;;;;;;;7.40;6.90;;;;;;;18.57;78.34;100581.19;5031759;28;20209;-75
2023/06/09 03:06:29;;;;;;;7.20;6.70;;;;;;;18.60;78.19;100588.13;5032077;28;20209;-75
2023/06/09 03:08:57;;;;;;;6.50;6.10;;;;;;;18.60;78.49;100586.31;5031983;28;20843;-75
2023/06/09 03:11:23;;;;;;;7.10;6.70;;;;;;;18.65;77.74;100592.25;5031907;28;20206;-75
2023/06/09 03:13:49;;;;;;;6.93;6.53;;;;;;;18.63;77.60;100607.34;5031552;28;20287;-75
2023/06/09 03:16:16;;;;;;;7.30;6.80;;;;;;;18.58;78.04;100601.41;5031883;28;20236;-75
2023/06/09 03:18:43;;;;;;;7.03;6.63;;;;;;;18.60;78.44;100594.25;5031527;28;20302;-75
2023/06/09 03:21:10;;;;;;;7.00;6.60;;;;;;;18.58;78.66;100593.47;5035399;28;20236;-75
2023/06/09 03:23:36;;;;;;;6.83;6.43;;;;;;;18.59;78.43;100600.50;5033233;28;20232;-75
2023/06/09 03:26:05;;;;;;;7.10;6.70;;;;;;;18.57;78.45;100599.72;5032083;28;20221;-75
2023/06/09 03:28:31;;;;;;;7.63;7.13;;;;;;;18.58;78.50;100604.06;5031353;28;20226;-76
2023/06/09 03:30:57;;;;;;;7.27;6.87;;;;;;;18.57;78.29;100615.56;5031636;28;20248;-76
2023/06/09 03:33:25;;;;;;;6.77;6.37;;;;;;;18.52;78.71;100608.78;5031364;28;20214;-76
2023/06/09 03:35:51;;;;;;;7.10;6.70;;;;;;;18.51;79.57;100604.44;5032000;28;20385;-75
2023/06/09 03:38:18;;;;;;;7.30;6.90;;;;;;;18.52;79.24;100590.28;5031293;28;20225;-75
2023/06/09 03:40:44;;;;;;;6.73;6.23;;;;;;;18.53;79.65;100589.34;5031814;28;20226;-75
2023/06/09 03:43:12;;;;;;;7.10;6.60;;;;;;;18.54;80.13;100578.69;5031629;28;20636;-75
2023/06/09 03:45:39;;;;;;;7.73;7.23;;;;;;;18.54;80.16;100572.56;5031530;28;20205;-75
2023/06/09 03:48:07;;;;;;;7.80;7.30;;;;;;;18.54;79.81;100576.06;5031671;28;20213;-75
2023/06/09 03:50:33;;;;;;;7.50;7.00;;;;;;;18.54;79.70;100577.84;5031769;28;20252;-75
2023/06/09 03:53:00;;;;;;;8.10;7.60;;;;;;;18.55;79.67;100587.47;5036603;28;20210;-75
2023/06/09 03:55:29;;;;;;;8.53;8.00;;;;;;;18.55;79.44;100588.34;5031748;28;20210;-75
2023/06/09 03:57:56;;;;;;;8.30;7.60;;;;;;;18.56;79.82;100590.06;5031335;28;20207;-75
2023/06/09 04:00:24;;;;;;;7.37;6.97;;;;;;;18.55;80.16;100587.47;5031837;28;20284;-75
2023/06/09 04:02:50;;;;;;;7.70;7.20;;;;;;;18.55;80.67;100584.84;5031604;28;20221;-75
2023/06/09 04:05:16;;;;;;;7.30;6.80;;;;;;;18.56;80.17;100589.22;5031583;28;20206;-75
2023/06/09 04:07:43;;;;;;;8.70;8.10;;;;;;;18.56;80.29;100591.84;5031544;28;20213;-76
2023/06/09 04:10:10;;;;;;;8.00;7.50;;;;;;;18.55;80.53;100583.06;5031158;28;20225;-76
2023/06/09 04:12:37;;;;;;;8.30;7.73;;;;;;;18.60;80.18;100586.31;5031382;28;20255;-75
2023/06/09 04:15:06;;;;;;;8.97;8.37;;;;;;;18.61;80.15;100587.16;5031176;28;20671;-76
2023/06/09 04:17:36;;;;;;;8.40;7.80;;;;;;;18.63;79.50;100604.69;5031299;28;20240;-75
2023/06/09 04:20:04;;;;;;;8.33;7.83;;;;;;;18.62;79.52;100610.91;5031250;28;20328;-75
2023/06/09 04:22:31;;;;;;;8.57;8.07;;;;;;;18.64;79.50;100616.97;5036343;28;20238;-75
2023/06/09 04:24:57;;;;;;;9.30;8.50;;;;;;;18.64;79.94;100602.91;5031542;28;20249;-75
2023/06/09 04:27:25;;;;;;;9.23;8.47;;;;;;;18.62;79.93;100605.59;5034835;28;20239;-75
2023/06/09 04:29:51;;;;;;;8.57;8.07;;;;;;;18.65;80.55;100586.97;5034939;28;20226;-75
2023/06/09 04:32:18;;;;;;;9.20;8.60;;;;;;;18.61;80.85;100588.03;5035017;28;20646;-76
2023/06/09 04:34:46;;;;;;;9.63;8.73;;;;;;;18.60;81.47;100566.97;5034906;28;20205;-75
2023/06/09 04:37:13;;;;;;;9.43;8.83;;;;;;;18.59;81.23;100568.75;5034722;28;20240;-75
2023/06/09 04:39:41;;;;;;;8.77;8.27;;;;;;;18.60;81.78;100557.22;5034646;28;20265;-75
2023/06/09 04:42:09;;;;;;;8.93;8.40;;;;;;;18.60;82.26;100543.16;5034504;28;20293;-75
2023/06/09 04:44:35;;;;;;;9.33;8.83;;;;;;;18.58;82.38;100542.38;5034638;28;20217;-75
2023/06/09 04:47:03;;;;;;;9.10;8.60;;;;;;;18.54;82.52;100540.84;5034524;28;20628;-75
2023/06/09 04:49:30;;;;;;;8.53;8.03;;;;;;;18.50;82.42;100545.41;5034218;28;20228;-75
2023/06/09 04:51:59;;;;;;;8.63;8.13;;;;;;;18.50;83.11;100526.91;5060513;23;20225;-73
2023/06/09 04:54:28;;;;;;;9.40;8.80;;;;;;;18.57;83.31;100520.41;5057745;28;20210;-73
2023/06/09 04:56:57;;;;;;;9.93;9.23;;;;;;;18.56;83.39;100518.66;5054057;28;20224;-73
2023/06/09 04:59:24;;;;;;;8.97;8.37;;;;;;;18.57;83.42;100515.09;5054443;28;20706;-73
2023/06/09 05:01:52;;;;;;;9.80;9.10;;;;;;;18.62;83.69;100518.34;5054723;28;20228;-73
2023/06/09 05:04:19;;;;;;;10.17;9.57;;;;;;;18.64;83.42;100524.41;5054391;28;20210;-73
2023/06/09 05:06:45;;;;;;;10.20;9.60;;;;;;;18.69;83.05;100521.56;5054470;28;20216;-73
2023/06/09 05:09:13;;;;;;;10.93;10.23;;;;;;;18.66;82.57;100535.78;5054496;28;20236;-73
2023/06/09 05:11:40;;;;;;;11.27;10.30;;;;;;;18.68;82.82;100540.97;5054485;28;20663;-73
2023/06/09 05:14:06;;;;;;;10.30;9.70;;;;;;;18.75;83.33;100536.22;5054390;28;20255;-73
2023/06/09 05:16:34;;;;;;;10.73;10.03;;;;;;;18.78;83.71;100523.72;5054081;28;20259;-73
2023/06/09 05:19:01;;;;;;;10.87;10.17;;;;;;;18.83;83.85;100520.88;5054136;28;20232;-73
2023/06/09 05:21:27;;;;;;;12.17;11.17;;;;;;;18.86;83.29;100536.56;5060055;28;20277;-73
2023/06/09 05:23:54;;;;;;;10.87;10.20;;;;;;;18.89;82.63;100551.41;5053925;28;20201;-73
2023/06/09 05:26:22;;;;;;;11.57;10.67;;;;;;;18.94;82.04;100558.19;5054171;28;20205;-73
2023/06/09 05:28:49;;;;;;;11.83;11.03;;;;;;;18.97;81.91;100575.72;5053781;28;20764;-73
2023/06/09 05:31:16;;;;;;;11.47;10.77;;;;;;;19.01;81.21;100596.63;5054062;28;20251;-73
2023/06/09 05:33:44;;;;;;;12.10;11.20;;;;;;;19.08;81.06;100609.53;5054075;28;20212;-73
2023/06/09 05:36:12;;;;;;;12.00;11.20;;;;;;;19.14;81.01;100614.50;5053643;28;20255;-73
2023/06/09 05:38:38;;;;;;;12.50;11.53;;;;;;;19.19;80.75;100631.88;5053434;28;20233;-73
2023/06/09 05:41:05;;;;;;;13.13;12.23;;;;;;;19.22;80.43;100638.78;5053796;28;20224;-73
2023/06/09 05:43:33;;;;;;;11.77;10.97;;;;;;;19.26;80.80;100648.25;5053877;28;20214;-73
2023/06/09 05:45:59;;;;;;;13.00;12.10;;;;;;;19.30;80.89;100639.22;5053497;28;20210;-73
2023/06/09 05:48:26;;;;;;;12.50;11.80;;;;;;;19.34;81.17;100632.00;5053405;28;20282;-72
2023/06/09 05:50:52;;;;;;;12.33;11.53;;;;;;;19.37;80.32;100651.22;5054887;28;20264;-72
2023/06/09 05:53:19;;;;;;;12.27;11.47;;;;;;;19.43;79.99;100665.94;5057868;28;20213;-72
2023/06/09 05:55:45;;;;;;;14.63;11.60;;;;;;;19.45;80.10;100661.41;5053271;28;20693;-73
2023/06/09 05:58:12;;;;;;;13.03;12.23;;;;;;;19.48;79.50;100682.41;5053342;28;20232;-73
2023/06/09 06:00:40;;;;;;;13.13;12.23;;;;;;;19.51;78.40;100698.16;5053124;28;20225;-73
2023/06/09 06:03:08;;;;;;;12.67;11.83;;;;;;;19.51;78.87;100711.41;5053527;28;20205;-73
2023/06/09 06:05:35;;;;;;;12.90;12.00;;;;;;;19.53;78.92;100711.31;5053449;28;20691;-73
2023/06/09 06:08:01;;;;;;;13.93;12.97;;;;;;;19.55;78.42;100714.75;5053131;28;20201;-73
2023/06/09 06:10:28;;;;;;;14.07;13.17;;;;;;;19.57;78.86;100719.03;5055020;28;20572;-72
2023/06/09 06:12:58;;;;;;;14.10;13.13;;;;;;;19.59;78.44;100717.16;5073623;28;20559;-73
2023/06/09 06:15:24;;;;;;;12.77;11.87;;;;;;;19.62;78.46;100724.94;5073377;28;20219;-73
2023/06/09 06:17:52;;;;;;;13.77;12.77;;;;;;;19.65;78.31;100723.91;5073993;28;20209;-73
2023/06/09 06:20:18;;;;;;;13.67;12.80;;;;;;;19.70;78.24;100729.84;5073642;28;20705;-73
2023/06/09 06:22:44;;;;;;;12.77;11.77;;;;;;;19.75;78.81;100721.69;5063620;28;20209;-74
2023/06/09 06:25:13;;;;;;;13.17;12.30;;;;;;;19.81;78.74;100714.25;5054180;28;20209;-73
2023/06/09 06:27:39;;;;;;;13.40;12.30;;;;;;;19.88;77.24;100740.41;5053523;28;20217;-73
2023/06/09 06:30:08;;;;;;;12.20;11.37;;;;;;;19.89;77.39;100753.59;5054313;28;20229;-74
2023/06/09 06:32:34;;;;;;;12.50;11.60;;;;;;;19.93;77.52;100747.19;5054581;28;20215;-73
2023/06/09 06:35:02;;;;;;;11.87;11.03;;;;;;;19.98;77.40;100752.22;5062661;28;20201;-73
2023/06/09 06:37:29;;;;;;;12.87;11.93;;;;;;;20.03;76.96;100748.41;5067340;28;20284;-73
2023/06/09 06:39:55;;;;;;;12.20;11.30;;;;;;;20.10;76.72;100759.56;5073666;28;20262;-73
2023/06/09 06:42:22;;;;;;;11.87;11.10;;;;;;;20.18;76.45;100770.59;5073487;28;20260;-73
2023/06/09 06:44:48;;;;;;;11.30;10.60;;;;;;;20.21;76.62;100774.88;5072794;28;20667;-73
2023/06/09 06:47:14;;;;;;;12.10;11.40;;;;;;;20.24;75.92;100788.81;5072765;28;20204;-73
2023/06/09 06:49:41;;;;;;;12.80;11.80;;;;;;;20.26;75.61;100799.34;5072670;28;20232;-73
2023/06/09 06:52:09;;;;;;;13.10;12.13;;;;;;;20.27;76.05;100798.41;5068004;28;20213;-73
2023/06/09 06:54:35;;;;;;;11.93;11.13;;;;;;;20.31;76.23;100799.09;5052915;28;20252;-72
2023/06/09 06:57:01;;;;;;;12.07;11.27;;;;;;;20.34;75.88;100801.59;5053111;28;20209;-72
2023/06/09 06:59:28;;;;;;;12.63;11.83;;;;;;;20.37;76.01;100801.41;5052988;28;20257;-72
2023/06/09 07:01:54;;;;;;;12.70;11.80;;;;;;;20.43;75.93;100801.94;5053165;28;20294;-73
2023/06/09 07:04:21;;;;;;;10.83;10.13;;;;;;;20.50;75.41;100813.06;5053097;28;20206;-72
2023/06/09 07:06:47;;;;;;;11.23;10.53;;;;;;;20.52;75.31;100824.44;5053170;28;20347;-72
2023/06/09 07:09:15;;;;;;;12.30;11.50;;;;;;;20.53;74.97;100825.31;5053147;28;20233;-73
2023/06/09 07:11:44;;;;;;;12.60;11.80;;;;;;;20.54;74.84;100830.53;5053712;28;20227;-72
2023/06/09 07:14:10;;;;;;;13.03;11.97;;;;;;;20.56;75.28;100819.84;5053101;28;20263;-72
2023/06/09 07:16:36;;;;;;;12.30;11.50;;;;;;;20.57;75.47;100821.53;5053004;28;20206;-73
2023/06/09 07:19:03;;;;;;;12.43;11.33;;;;;;;20.59;75.53;100825.00;5052415;28;20237;-72
2023/06/09 07:21:32;;;;;;;11.73;10.77;;;;;;;20.61;75.32;100815.16;5053119;28;20225;-72
2023/06/09 07:23:58;;;;;;;10.97;10.17;;;;;;;20.61;75.71;100808.06;5052987;28;20755;-72
2023/06/09 07:26:26;;;;;;;13.03;12.17;;;;;;;20.61;77.00;100791.28;5052909;28;20205;-73
2023/06/09 07:28:52;;;;;;;11.93;11.13;;;;;;;20.68;77.61;100758.19;5052110;28;20229;-72
2023/06/09 07:31:18;;;;;;;12.40;11.50;;;;;;;20.79;75.99;100770.81;5053073;28;20255;-72
2023/06/09 07:33:45;;;;;;;11.83;11.03;;;;;;;20.88;74.57;100804.81;5052620;28;20264;-72
2023/06/09 07:36:11;;;;;;;12.10;11.20;;;;;;;20.92;74.27;100821.44;5052848;28;20201;-72
2023/06/09 07:38:38;;;;;;;11.37;10.67;;;;;;;20.96;74.08;100828.28;5052615;28;20271;-72
2023/06/09 07:41:05;;;;;;;11.40;10.57;;;;;;;20.98;74.35;100831.69;5051835;28;20319;-73
2023/06/09 07:43:33;;;;;;;11.57;10.83;;;;;;;21.03;74.27;100832.31;5051422;28;20259;-72
2023/06/09 07:45:59;;;;;;;12.07;11.23;;;;;;;21.06;74.38;100834.78;5050832;28;20674;-72
2023/06/09 07:48:26;;;;;;;11.30;10.20;;;;;;;21.07;75.25;100820.56;5051485;28;20260;-72
2023/06/09 07:50:52;;;;;;;12.50;11.53;;;;;;;21.10;74.68;100817.72;5052555;28;20251;-74
2023/06/09 07:53:21;;;;;;;13.07;11.97;;;;;;;21.09;74.19;100825.78;5054990;28;20248;-73
2023/06/09 07:55:47;;;;;;;12.63;11.43;;;;;;;21.09;73.82;100847.00;5053994;28;20732;-73
2023/06/09 07:58:14;;;;;;;12.33;11.53;;;;;;;21.09;73.12;100857.63;5053717;28;20233;-73
2023/06/09 08:00:42;;;;;;;11.57;10.77;;;;;;;21.13;72.67;100870.66;5057660;28;20209;-72
2023/06/09 08:03:08;;;;;;;13.13;12.33;;;;;;;21.18;72.32;100886.31;5057397;28;20918;-73
2023/06/09 08:05:34;;;;;;;12.73;11.83;;;;;;;21.20;72.29;100895.91;5057023;28;20209;-73
2023/06/09 08:08:02;;;;;;;12.77;11.87;;;;;;;21.26;72.62;100888.53;5057204;28;20215;-72
2023/06/09 08:10:28;;;;;;;12.37;11.27;;;;;;;21.33;73.13;100877.50;5056835;28;20205;-73
2023/06/09 08:12:55;;;;;;;12.23;11.37;;;;;;;21.40;73.01;100870.88;5055178;28;20683;-73
2023/06/09 08:15:21;;;;;;;12.50;11.60;;;;;;;21.49;73.23;100866.88;5056718;28;20296;-73
2023/06/09 08:17:49;;;;;;;11.33;10.53;;;;;;;21.57;72.22;100883.22;5057140;28;20206;-72
2023/06/09 08:20:16;;;;;;;12.70;11.57;;;;;;;21.57;72.56;100890.34;5056614;28;20710;-73
2023/06/09 08:22:42;;;;;;;11.60;10.70;;;;;;;21.68;70.90;100903.00;5061577;28;20225;-73
2023/06/09 08:25:09;;;;;;;12.13;11.00;;;;;;;21.71;69.60;100938.22;5055969;28;20629;-73
2023/06/09 08:27:36;;;;;;;10.93;10.23;;;;;;;21.74;69.46;100955.78;5056669;28;20248;-73
2023/06/09 08:30:04;;;;;;;11.30;10.50;;;;;;;21.69;70.48;100953.41;5056360;28;20279;-73
2023/06/09 08:32:30;;;;;;;10.77;9.77;;;;;;;21.70;71.15;100939.16;5057707;28;20254;-73
2023/06/09 08:34:58;;;;;;;11.50;10.70;;;;;;;21.78;70.91;100938.72;5054396;28;20233;-73
2023/06/09 08:37:25;;;;;;;10.13;9.43;;;;;;;21.83;70.79;100910.09;5054504;28;20299;-73
2023/06/09 08:39:54;;;;;;;11.10;10.23;;;;;;;21.91;69.81;100945.03;5054654;28;20257;-73
2023/06/09 08:42:22;;;;;;;10.63;9.90;;;;;;;21.99;69.66;100955.22;5054849;28;20229;-73
2023/06/09 08:44:51;;;;;;;9.83;9.13;;;;;;;22.07;69.37;100930.84;5054911;28;20233;-73
2023/06/09 08:47:21;;;;;;;10.17;9.37;;;;;;;22.14;67.79;100986.25;5054494;28;20210;-73
2023/06/09 08:49:48;;;;;;;10.37;9.67;;;;;;;22.21;67.27;101015.97;5053933;28;20226;-74
2023/06/09 08:52:17;;;;;;;10.77;9.97;;;;;;;22.20;66.42;101031.09;5056639;28;20574;-80
2023/06/09 08:54:46;;;;;;;10.00;9.20;;;;;;;22.26;66.94;101051.19;5061618;28;20228;-81
2023/06/09 08:57:16;;;;;;;11.07;9.97;;;;;;;22.31;67.70;101045.59;5065621;28;20189;-79
2023/06/09 08:59:44;;;;;;;10.13;9.33;;;;;;;22.36;66.83;101038.22;5063091;28;20225;-78
2023/06/09 09:02:12;;;;;;;9.67;9.00;;;;;;;22.43;67.48;101038.69;5061897;28;20229;-77
2023/06/09 09:04:39;;;;;;;11.53;10.47;;;;;;;22.50;66.71;101027.59;5067749;28;20224;-78
2023/06/09 09:07:06;;;;;;;10.30;9.70;;;;;;;22.57;66.66;101041.38;5059338;28;20232;-78
2023/06/09 09:09:37;;;;;;;10.13;9.33;;;;;;;22.66;66.75;101047.97;5061953;28;20225;-77
2023/06/09 09:12:04;;;;;;;10.93;8.83;;;;;;;22.72;66.73;101032.47;5060308;28;20205;-77
2023/06/09 09:14:30;;;;;;;10.83;9.87;;;;;;;22.77;66.95;101021.53;5062193;28;20205;-78
2023/06/09 09:16:56;;;;;;;9.70;8.90;;;;;;;22.84;65.75;101035.38;5063067;28;20232;-78
2023/06/09 09:19:27;;;;;;;9.63;8.83;;;;;;;22.93;65.27;101054.28;5061451;28;20229;-78
2023/06/09 09:21:55;;;;;;;8.93;8.23;;;;;;;23.00;65.52;101058.28;5064783;28;20249;-79
2023/06/09 09:24:21;;;;;;;10.17;9.37;;;;;;;23.13;66.14;101054.88;5060392;28;20216;-79
2023/06/09 09:26:49;;;;;;;9.87;9.20;;;;;;;23.24;68.46;101001.81;5062760;28;20236;-77
2023/06/09 09:29:18;;;;;;;9.57;8.83;;;;;;;23.35;67.18;100995.81;5065325;28;20814;-79
2023/06/09 09:31:44;;;;;;;9.73;9.00;;;;;;;23.47;66.39;101003.03;5064268;28;20206;-78
2023/06/09 09:34:12;;;;;;;9.30;8.57;;;;;;;23.56;66.24;101002.41;5065767;28;20213;-78
2023/06/09 09:36:41;;;;;;;9.60;8.90;;;;;;;23.64;64.87;101033.91;5069161;28;20212;-77
2023/06/09 09:39:08;;;;;;;9.90;9.30;;;;;;;23.71;63.86;101048.56;5083860;28;20220;-79
2023/06/09 09:41:35;;;;;;;9.47;8.80;;;;;;;23.78;64.08;101084.56;5088400;28;20205;-79
2023/06/09 09:44:02;;;;;;;9.43;8.83;;;;;;;23.85;63.31;101094.84;5080406;28;20286;-78
2023/06/09 09:46:36;;;;;;;10.77;9.97;;;;;;;23.86;66.83;101092.06;5082288;28;20243;-78
2023/06/09 09:49:02;;;;;;;10.33;9.63;;;;;;;23.90;64.55;101036.72;5074962;28;20870;-77
2023/06/09 09:51:29;;;;;;;10.07;9.37;;;;;;;23.96;63.08;101074.53;5074429;28;20234;-77
2023/06/09 09:53:59;;;;;;;9.87;9.20;;;;;;;23.99;63.08;101110.81;5073331;28;20216;-73
2023/06/09 09:56:27;;;;;;;10.03;9.23;;;;;;;24.00;63.22;101109.84;5073531;28;20796;-74
2023/06/09 09:58:54;;;;;;;10.53;9.73;;;;;;;24.02;63.44;101105.25;5072895;28;20231;-74
2023/06/09 10:01:24;;;;;;;10.63;9.70;;;;;;;24.03;62.15;101120.31;5073476;28;20260;-74
2023/06/09 10:03:54;;;;;;;10.43;9.73;;;;;;;24.05;61.98;101145.06;5063918;28;20204;-74
2023/06/09 10:06:24;;;;;;;10.27;9.37;;;;;;;24.07;62.68;101132.50;5052958;28;20212;-75
2023/06/09 10:08:52;;;;;;;11.83;10.77;;;;;;;24.14;62.27;101131.16;5052755;28;20725;-75
2023/06/09 10:11:20;;;;;;;11.27;10.20;;;;;;;24.17;61.38;101148.75;5053794;28;20637;-73
2023/06/09 10:13:47;;;;;;;11.30;10.50;;;;;;;24.19;60.31;101181.53;5053958;28;20213;-74
2023/06/09 10:16:14;;;;;;;10.43;9.70;;;;;;;24.25;61.67;101172.28;5053667;28;20216;-75
2023/06/09 10:18:42;;;;;;;9.23;8.63;;;;;;;24.36;61.07;101157.28;5053209;28;20761;-74
2023/06/09 10:21:10;;;;;;;11.30;10.40;;;;;;;24.52;61.03;101142.97;5053635;28;20262;-74
2023/06/09 10:23:37;;;;;;;10.07;9.47;;;;;;;24.65;60.00;101162.53;5052381;28;20208;-74
2023/06/09 10:26:04;;;;;;;10.37;9.67;;;;;;;24.74;59.81;101163.75;5053681;28;20205;-74
2023/06/09 10:28:31;;;;;;;10.00;9.23;;;;;;;24.83;59.12;101180.97;5053527;28;20246;-74
2023/06/09 10:31:00;;;;;;;9.90;9.10;;;;;;;24.87;58.53;101217.19;5053738;28;20259;-74
2023/06/09 10:33:30;;;;;;;10.13;9.43;;;;;;;24.91;59.07;101211.53;5057976;28;20236;-74
2023/06/09 10:35:59;;;;;;;9.43;8.67;;;;;;;24.98;59.10;101210.16;5052769;28;20209;-74
2023/06/09 10:38:30;;;;;;;10.27;9.50;;;;;;;25.04;59.94;101194.69;5052774;28;20983;-74
2023/06/09 10:41:10;;;;;;;10.53;9.43;;;;;;;25.09;57.84;101209.41;5053237;28;20255;-74
2023/06/09 10:43:53;;;;;;;11.10;10.07;;;;;;;25.13;57.78;101218.09;5052951;28;20707;-73
2023/06/09 10:46:40;;;;;;;9.50;8.90;;;;;;;25.20;60.55;101176.66;5056151;28;20204;-73
2023/06/09 10:49:07;;;;;;;9.40;8.70;;;;;;;25.29;59.60;101176.06;5055788;28;20228;-79
2023/06/09 10:51:43;;;;;;;9.53;8.83;;;;;;;25.36;58.95;101197.84;5055862;28;20236;-79
2023/06/09 10:54:23;;;;;;;9.60;9.00;;;;;;;25.41;58.94;101147.63;5086286;23;20236;-80
2023/06/09 10:56:55;;;;;;;8.87;8.23;;;;;;;25.45;58.45;101183.84;5067263;28;20213;-82
2023/06/09 11:00:12;;;;;;;10.03;9.17;;;;;;;25.56;58.03;101186.63;5064289;28;20202;-79
2023/06/09 11:02:39;;;;;;;10.07;9.23;;;;;;;25.62;57.28;101203.19;5063568;28;20295;-80
2023/06/09 11:05:06;;;;;;;9.03;8.33;;;;;;;25.72;58.04;101220.31;5065285;28;20232;-80
2023/06/09 11:07:41;;;;;;;10.80;10.00;;;;;;;25.77;57.29;101235.06;5064647;28;20205;-80
2023/06/09 11:10:36;;;;;;;8.90;8.30;;;;;;;25.80;56.54;101209.06;5063831;28;20208;-80
2023/06/09 11:13:24;;;;;;;9.37;8.67;;;;;;;25.82;54.84;101266.84;5066276;28;20239;-80
2023/06/09 11:16:01;;;;;;;10.13;9.33;;;;;;;25.78;56.02;101289.41;5076956;28;20227;-81
2023/06/09 11:18:28;;;;;;;9.30;8.60;;;;;;;25.83;54.95;101284.59;5076632;28;20216;-80
2023/06/09 11:21:16;;;;;;;9.20;8.40;;;;;;;25.94;55.03;101283.88;5076921;28;20245;-80
2023/06/09 11:23:56;;;;;;;9.47;8.63;;;;;;;26.03;54.48;101293.09;5072027;28;20252;-81